PWSweather.com
Personal Weather Stations
Station Observations
MART18
Seleziona Stato..., MartinsicuroIT italia

Seleziona Stato...MartinsicuroIT italia

Lat: 42.885169, Lon: 13.918447300000025

Elevation: 3

Station Type: Davis vantage vp2

branciuno67@gmail.com

High Low Average
Temperature 84.2°F29.0°C 71.8°F22.1°C 78.8°F26.0°C
Dew Point 72.7°F22.6°C 62.2°F16.8°C 67.9°F19.9°C
Winds 4.9 mph 7.9 kmh Calm Calm 2.0 mph SSW3.2 kmh SSW
Wind Gusts 11.0 mph17.7 kmh -- 5.0 mph8.0 kmh
Humidity 76% 57% 69%
Pressure 29.93 in1013.5 mb 29.81 in1009.5 mb -
Precipitation 0.00 in0.0 mm - -
Hour Temp Dew Point Humidity Winds Wind Gusts Pressure Precip Precip Rate Daily Precip Total
12:01 AM 76.1°F24.5°C 67.6°F19.8°C 75% 2.0 mph NW3.2 kmh NW 7.0 mph11.3 kmh 29.93 in1013.5 mb 0.00 in0.0 mm 0.00 in0.0 mm 0.00 in0.0 mm
12:06 AM 76.1°F24.5°C 67.6°F19.8°C 75% 2.0 mph W3.2 kmh W 4.9 mph7.9 kmh 29.93 in1013.5 mb 0.00 in0.0 mm 0.00 in0.0 mm 0.00 in0.0 mm
12:11 AM 76.1°F24.5°C 67.6°F19.8°C 75% 2.0 mph NW3.2 kmh NW 6.0 mph9.7 kmh 29.93 in1013.5 mb 0.00 in0.0 mm 0.00 in0.0 mm 0.00 in0.0 mm
12:16 AM 76.3°F24.6°C 67.5°F19.7°C 74% 2.0 mph W3.2 kmh W 6.0 mph9.7 kmh 29.93 in1013.5 mb 0.00 in0.0 mm 0.00 in0.0 mm 0.00 in0.0 mm
12:21 AM 76.3°F24.6°C 67.5°F19.7°C 74% 2.9 mph W4.7 kmh W 7.0 mph11.3 kmh 29.92 in1013.2 mb 0.00 in0.0 mm 0.00 in0.0 mm 0.00 in0.0 mm
12:26 AM 76.5°F24.7°C 67.6°F19.8°C 74% 2.9 mph W4.7 kmh W 6.0 mph9.7 kmh 29.92 in1013.2 mb 0.00 in0.0 mm 0.00 in0.0 mm 0.00 in0.0 mm
12:31 AM 76.6°F24.8°C 67.3°F19.6°C 73% 2.0 mph NW3.2 kmh NW 6.0 mph9.7 kmh 29.92 in1013.2 mb 0.00 in0.0 mm 0.00 in0.0 mm 0.00 in0.0 mm
12:36 AM 76.6°F24.8°C 67.3°F19.6°C 73% 2.0 mph NNE3.2 kmh NNE 4.0 mph6.4 kmh 29.92 in1013.2 mb 0.00 in0.0 mm 0.00 in0.0 mm 0.00 in0.0 mm
12:41 AM 76.5°F24.7°C 66.7°F19.3°C 72% 2.0 mph NW3.2 kmh NW 8.1 mph13.0 kmh 29.92 in1013.2 mb 0.00 in0.0 mm 0.00 in0.0 mm 0.00 in0.0 mm
12:46 AM 76.3°F24.6°C 66.9°F19.4°C 73% 2.0 mph NW3.2 kmh NW 8.1 mph13.0 kmh 29.92 in1013.2 mb 0.00 in0.0 mm 0.00 in0.0 mm 0.00 in0.0 mm
12:51 AM 76.1°F24.5°C 66.7°F19.3°C 73% 2.0 mph NW3.2 kmh NW 4.9 mph7.9 kmh 29.91 in1012.9 mb 0.00 in0.0 mm 0.00 in0.0 mm 0.00 in0.0 mm
12:56 AM 75.9°F24.4°C 66.6°F19.2°C 73% 2.0 mph W3.2 kmh W 6.0 mph9.7 kmh 29.91 in1012.9 mb 0.00 in0.0 mm 0.00 in0.0 mm 0.00 in0.0 mm
01:01 AM 75.7°F24.3°C 66.4°F19.1°C 73% 2.9 mph WNW4.7 kmh WNW 7.0 mph11.3 kmh 29.91 in1012.9 mb 0.00 in0.0 mm 0.00 in0.0 mm 0.00 in0.0 mm
01:06 AM 75.7°F24.3°C 66.4°F19.1°C 73% 2.0 mph W3.2 kmh W 6.0 mph9.7 kmh 29.91 in1012.9 mb 0.00 in0.0 mm 0.00 in0.0 mm 0.00 in0.0 mm
01:11 AM 75.6°F24.2°C 66.4°F19.1°C 73% 2.0 mph WNW3.2 kmh WNW 4.0 mph6.4 kmh 29.91 in1012.9 mb 0.00 in0.0 mm 0.00 in0.0 mm 0.00 in0.0 mm
01:16 AM 75.4°F24.1°C 66.2°F19.0°C 73% 2.0 mph WNW3.2 kmh WNW 4.0 mph6.4 kmh 29.91 in1012.9 mb 0.00 in0.0 mm 0.00 in0.0 mm 0.00 in0.0 mm
01:21 AM 75.4°F24.1°C 66.2°F19.0°C 73% 2.0 mph WNW3.2 kmh WNW 6.0 mph9.7 kmh 29.91 in1012.9 mb 0.00 in0.0 mm 0.00 in0.0 mm 0.00 in0.0 mm
01:26 AM 75.7°F24.3°C 66.4°F19.1°C 73% 2.0 mph WNW3.2 kmh WNW 6.9 mph11.1 kmh 29.91 in1012.9 mb 0.00 in0.0 mm 0.00 in0.0 mm 0.00 in0.0 mm
01:31 AM 75.7°F24.3°C 66.4°F19.1°C 73% 0.9 mph WNW1.4 kmh WNW 2.0 mph3.2 kmh 29.91 in1012.9 mb 0.00 in0.0 mm 0.00 in0.0 mm 0.00 in0.0 mm
01:36 AM 75.7°F24.3°C 66.4°F19.1°C 73% 0.9 mph WNW1.4 kmh WNW 4.0 mph6.4 kmh 29.91 in1012.9 mb 0.00 in0.0 mm 0.00 in0.0 mm 0.00 in0.0 mm
01:41 AM 75.7°F24.3°C 66.0°F18.9°C 72% 2.0 mph W3.2 kmh W 6.0 mph9.7 kmh 29.91 in1012.9 mb 0.00 in0.0 mm 0.00 in0.0 mm 0.00 in0.0 mm
01:46 AM 75.4°F24.1°C 65.7°F18.7°C 72% 2.0 mph WNW3.2 kmh WNW 6.0 mph9.7 kmh 29.91 in1012.9 mb 0.00 in0.0 mm 0.00 in0.0 mm 0.00 in0.0 mm
01:51 AM 75.2°F24.0°C 65.5°F18.6°C 72% 2.9 mph NW4.7 kmh NW 10.1 mph16.3 kmh 29.91 in1012.9 mb 0.00 in0.0 mm 0.00 in0.0 mm 0.00 in0.0 mm
01:56 AM 75.2°F24.0°C 65.5°F18.6°C 72% 2.9 mph WNW4.7 kmh WNW 6.9 mph11.1 kmh 29.91 in1012.9 mb 0.00 in0.0 mm 0.00 in0.0 mm 0.00 in0.0 mm
02:01 AM 75.0°F23.9°C 65.3°F18.5°C 72% 2.0 mph WNW3.2 kmh WNW 4.0 mph6.4 kmh 29.91 in1012.9 mb 0.00 in0.0 mm 0.00 in0.0 mm 0.00 in0.0 mm
02:06 AM 75.0°F23.9°C 65.3°F18.5°C 72% 0.9 mph WNW1.4 kmh WNW 5.0 mph8.0 kmh 29.91 in1012.9 mb 0.00 in0.0 mm 0.00 in0.0 mm 0.00 in0.0 mm
02:11 AM 74.8°F23.8°C 65.1°F18.4°C 72% 0.9 mph NW1.4 kmh NW 7.0 mph11.3 kmh 29.91 in1012.9 mb 0.00 in0.0 mm 0.00 in0.0 mm 0.00 in0.0 mm
02:16 AM 74.5°F23.6°C 65.3°F18.5°C 73% 2.0 mph NW3.2 kmh NW 4.0 mph6.4 kmh 29.91 in1012.9 mb 0.00 in0.0 mm 0.00 in0.0 mm 0.00 in0.0 mm
02:21 AM 74.3°F23.5°C 65.1°F18.4°C 73% 2.0 mph NW3.2 kmh NW 2.9 mph4.7 kmh 29.91 in1012.9 mb 0.00 in0.0 mm 0.00 in0.0 mm 0.00 in0.0 mm
02:26 AM 74.3°F23.5°C 65.1°F18.4°C 73% 0.9 mph NW1.4 kmh NW 2.9 mph4.7 kmh 29.91 in1012.9 mb 0.00 in0.0 mm 0.00 in0.0 mm 0.00 in0.0 mm
02:31 AM 74.1°F23.4°C 64.9°F18.3°C 73% 0.9 mph NW1.4 kmh NW 4.0 mph6.4 kmh 29.91 in1012.9 mb 0.00 in0.0 mm 0.00 in0.0 mm 0.00 in0.0 mm
02:36 AM 74.1°F23.4°C 64.9°F18.3°C 73% 2.0 mph NW3.2 kmh NW 4.0 mph6.4 kmh 29.90 in1012.5 mb 0.00 in0.0 mm 0.00 in0.0 mm 0.00 in0.0 mm
02:41 AM 73.9°F23.3°C 64.8°F18.2°C 73% 2.0 mph NW3.2 kmh NW 4.9 mph7.9 kmh 29.91 in1012.9 mb 0.00 in0.0 mm 0.00 in0.0 mm 0.00 in0.0 mm
02:46 AM 73.8°F23.2°C 64.9°F18.3°C 74% 2.0 mph NW3.2 kmh NW 4.9 mph7.9 kmh 29.90 in1012.5 mb 0.00 in0.0 mm 0.00 in0.0 mm 0.00 in0.0 mm
02:51 AM 73.6°F23.1°C 64.8°F18.2°C 74% 2.0 mph NW3.2 kmh NW 4.0 mph6.4 kmh 29.90 in1012.5 mb 0.00 in0.0 mm 0.00 in0.0 mm 0.00 in0.0 mm
02:56 AM 73.4°F23.0°C 64.6°F18.1°C 74% 2.0 mph WNW3.2 kmh WNW 4.0 mph6.4 kmh 29.90 in1012.5 mb 0.00 in0.0 mm 0.00 in0.0 mm 0.00 in0.0 mm
03:01 AM 73.2°F22.9°C 64.4°F18.0°C 74% 2.0 mph NW3.2 kmh NW 4.0 mph6.4 kmh 29.90 in1012.5 mb 0.00 in0.0 mm 0.00 in0.0 mm 0.00 in0.0 mm
03:06 AM 73.2°F22.9°C 64.4°F18.0°C 74% 0.9 mph NW1.4 kmh NW 2.9 mph4.7 kmh 29.90 in1012.5 mb 0.00 in0.0 mm 0.00 in0.0 mm 0.00 in0.0 mm
03:11 AM 73.6°F23.1°C 64.8°F18.2°C 74% Calm Calm 2.0 mph3.2 kmh 29.90 in1012.5 mb 0.00 in0.0 mm 0.00 in0.0 mm 0.00 in0.0 mm
03:16 AM 73.6°F23.1°C 64.8°F18.2°C 74% Calm Calm 2.0 mph3.2 kmh 29.90 in1012.5 mb 0.00 in0.0 mm 0.00 in0.0 mm 0.00 in0.0 mm
03:21 AM 73.6°F23.1°C 64.4°F18.0°C 73% 0.9 mph NW1.4 kmh NW 2.0 mph3.2 kmh 29.90 in1012.5 mb 0.00 in0.0 mm 0.00 in0.0 mm 0.00 in0.0 mm
03:26 AM 73.6°F23.1°C 64.4°F18.0°C 73% Calm Calm 2.0 mph3.2 kmh 29.90 in1012.5 mb 0.00 in0.0 mm 0.00 in0.0 mm 0.00 in0.0 mm
03:31 AM 73.6°F23.1°C 64.4°F18.0°C 73% Calm Calm -- 29.90 in1012.5 mb 0.00 in0.0 mm 0.00 in0.0 mm 0.00 in0.0 mm
03:36 AM 73.4°F23.0°C 64.2°F17.9°C 73% Calm Calm 2.0 mph3.2 kmh 29.90 in1012.5 mb 0.00 in0.0 mm 0.00 in0.0 mm 0.00 in0.0 mm
03:41 AM 73.0°F22.8°C 63.9°F17.7°C 73% 0.9 mph NNW1.4 kmh NNW 4.0 mph6.4 kmh 29.90 in1012.5 mb 0.00 in0.0 mm 0.00 in0.0 mm 0.00 in0.0 mm
03:46 AM 72.7°F22.6°C 63.9°F17.7°C 74% 2.0 mph NW3.2 kmh NW 6.9 mph11.1 kmh 29.90 in1012.5 mb 0.00 in0.0 mm 0.00 in0.0 mm 0.00 in0.0 mm
03:51 AM 72.5°F22.5°C 63.7°F17.6°C 74% 2.0 mph NW3.2 kmh NW 2.9 mph4.7 kmh 29.90 in1012.5 mb 0.00 in0.0 mm 0.00 in0.0 mm 0.00 in0.0 mm
03:56 AM 72.5°F22.5°C 63.7°F17.6°C 74% 2.0 mph NW3.2 kmh NW 2.9 mph4.7 kmh 29.90 in1012.5 mb 0.00 in0.0 mm 0.00 in0.0 mm 0.00 in0.0 mm
04:01 AM 72.7°F22.6°C 63.9°F17.7°C 74% 2.0 mph NW3.2 kmh NW 2.9 mph4.7 kmh 29.90 in1012.5 mb 0.00 in0.0 mm 0.00 in0.0 mm 0.00 in0.0 mm
04:06 AM 72.7°F22.6°C 63.9°F17.7°C 74% 0.9 mph NW1.4 kmh NW 2.0 mph3.2 kmh 29.90 in1012.5 mb 0.00 in0.0 mm 0.00 in0.0 mm 0.00 in0.0 mm
04:11 AM 72.9°F22.7°C 63.7°F17.6°C 73% 0.9 mph WNW1.4 kmh WNW 2.9 mph4.7 kmh 29.89 in1012.2 mb 0.00 in0.0 mm 0.00 in0.0 mm 0.00 in0.0 mm
04:16 AM 72.9°F22.7°C 63.7°F17.6°C 73% 0.9 mph WNW1.4 kmh WNW 2.9 mph4.7 kmh 29.89 in1012.2 mb 0.00 in0.0 mm 0.00 in0.0 mm 0.00 in0.0 mm
04:21 AM 72.5°F22.5°C 63.3°F17.4°C 73% 2.0 mph NW3.2 kmh NW 6.0 mph9.7 kmh 29.89 in1012.2 mb 0.00 in0.0 mm 0.00 in0.0 mm 0.00 in0.0 mm
04:26 AM 72.1°F22.3°C 63.0°F17.2°C 73% 2.9 mph W4.7 kmh W 6.9 mph11.1 kmh 29.90 in1012.5 mb 0.00 in0.0 mm 0.00 in0.0 mm 0.00 in0.0 mm
04:31 AM 72.0°F22.2°C 63.1°F17.3°C 74% 4.0 mph WNW6.4 kmh WNW 6.9 mph11.1 kmh 29.90 in1012.5 mb 0.00 in0.0 mm 0.00 in0.0 mm 0.00 in0.0 mm
04:36 AM 71.8°F22.1°C 63.0°F17.2°C 74% 2.9 mph NW4.7 kmh NW 6.9 mph11.1 kmh 29.90 in1012.5 mb 0.00 in0.0 mm 0.00 in0.0 mm 0.00 in0.0 mm
04:41 AM 72.0°F22.2°C 63.1°F17.3°C 74% 2.0 mph NW3.2 kmh NW 6.9 mph11.1 kmh 29.90 in1012.5 mb 0.00 in0.0 mm 0.00 in0.0 mm 0.00 in0.0 mm
04:46 AM 72.0°F22.2°C 62.8°F17.1°C 73% 2.0 mph NW3.2 kmh NW 4.9 mph7.9 kmh 29.89 in1012.2 mb 0.00 in0.0 mm 0.00 in0.0 mm 0.00 in0.0 mm
04:51 AM 72.0°F22.2°C 62.8°F17.1°C 73% 2.9 mph NW4.7 kmh NW 6.0 mph9.7 kmh 29.89 in1012.2 mb 0.00 in0.0 mm 0.00 in0.0 mm 0.00 in0.0 mm
04:56 AM 72.1°F22.3°C 63.0°F17.2°C 73% 2.9 mph NW4.7 kmh NW 7.0 mph11.3 kmh 29.89 in1012.2 mb 0.00 in0.0 mm 0.00 in0.0 mm 0.00 in0.0 mm
05:01 AM 72.1°F22.3°C 62.6°F17.0°C 72% 2.9 mph NNW4.7 kmh NNW 6.0 mph9.7 kmh 29.89 in1012.2 mb 0.00 in0.0 mm 0.00 in0.0 mm 0.00 in0.0 mm
05:06 AM 72.1°F22.3°C 62.6°F17.0°C 72% 2.0 mph NW3.2 kmh NW 4.0 mph6.4 kmh 29.90 in1012.5 mb 0.00 in0.0 mm 0.00 in0.0 mm 0.00 in0.0 mm
05:11 AM 72.3°F22.4°C 62.8°F17.1°C 72% 2.0 mph NW3.2 kmh NW 2.9 mph4.7 kmh 29.90 in1012.5 mb 0.00 in0.0 mm 0.00 in0.0 mm 0.00 in0.0 mm
05:16 AM 72.3°F22.4°C 62.8°F17.1°C 72% 2.0 mph NW3.2 kmh NW 5.0 mph8.0 kmh 29.90 in1012.5 mb 0.00 in0.0 mm 0.00 in0.0 mm 0.00 in0.0 mm
05:21 AM 72.5°F22.5°C 63.0°F17.2°C 72% 2.0 mph NW3.2 kmh NW 4.0 mph6.4 kmh 29.89 in1012.2 mb 0.00 in0.0 mm 0.00 in0.0 mm 0.00 in0.0 mm
05:26 AM 72.5°F22.5°C 62.6°F17.0°C 71% 2.0 mph NW3.2 kmh NW 4.0 mph6.4 kmh 29.90 in1012.5 mb 0.00 in0.0 mm 0.00 in0.0 mm 0.00 in0.0 mm
05:31 AM 72.5°F22.5°C 62.6°F17.0°C 71% 2.0 mph NW3.2 kmh NW 4.9 mph7.9 kmh 29.90 in1012.5 mb 0.00 in0.0 mm 0.00 in0.0 mm 0.00 in0.0 mm
05:36 AM 72.3°F22.4°C 62.4°F16.9°C 71% 2.9 mph NW4.7 kmh NW 8.9 mph14.3 kmh 29.90 in1012.5 mb 0.00 in0.0 mm 0.00 in0.0 mm 0.00 in0.0 mm
05:41 AM 72.1°F22.3°C 62.2°F16.8°C 71% 2.9 mph NW4.7 kmh NW 8.9 mph14.3 kmh 29.90 in1012.5 mb 0.00 in0.0 mm 0.00 in0.0 mm 0.00 in0.0 mm
05:46 AM 72.0°F22.2°C 62.4°F16.9°C 72% 2.9 mph WNW4.7 kmh WNW 8.9 mph14.3 kmh 29.90 in1012.5 mb 0.00 in0.0 mm 0.00 in0.0 mm 0.00 in0.0 mm
05:51 AM 72.0°F22.2°C 62.4°F16.9°C 72% 2.9 mph NNW4.7 kmh NNW 4.9 mph7.9 kmh 29.90 in1012.5 mb 0.00 in0.0 mm 0.00 in0.0 mm 0.00 in0.0 mm
05:56 AM 72.1°F22.3°C 62.2°F16.8°C 71% 2.9 mph NW4.7 kmh NW 6.0 mph9.7 kmh 29.90 in1012.5 mb 0.00 in0.0 mm 0.00 in0.0 mm 0.00 in0.0 mm
06:01 AM 72.1°F22.3°C 62.2°F16.8°C 71% 2.9 mph NW4.7 kmh NW 4.9 mph7.9 kmh 29.90 in1012.5 mb 0.00 in0.0 mm 0.00 in0.0 mm 0.00 in0.0 mm
06:06 AM 72.3°F22.4°C 62.4°F16.9°C 71% 2.0 mph NW3.2 kmh NW 4.9 mph7.9 kmh 29.90 in1012.5 mb 0.00 in0.0 mm 0.00 in0.0 mm 0.00 in0.0 mm
06:11 AM 72.7°F22.6°C 62.8°F17.1°C 71% 2.0 mph NW3.2 kmh NW 4.0 mph6.4 kmh 29.90 in1012.5 mb 0.00 in0.0 mm 0.00 in0.0 mm 0.00 in0.0 mm
06:16 AM 72.7°F22.6°C 62.2°F16.8°C 70% 2.0 mph NW3.2 kmh NW 4.9 mph7.9 kmh 29.90 in1012.5 mb 0.00 in0.0 mm 0.00 in0.0 mm 0.00 in0.0 mm
06:21 AM 72.7°F22.6°C 62.2°F16.8°C 70% 2.9 mph W4.7 kmh W 4.9 mph7.9 kmh 29.90 in1012.5 mb 0.00 in0.0 mm 0.00 in0.0 mm 0.00 in0.0 mm
06:26 AM 72.7°F22.6°C 62.2°F16.8°C 70% 2.9 mph WNW4.7 kmh WNW 8.1 mph13.0 kmh 29.90 in1012.5 mb 0.00 in0.0 mm 0.00 in0.0 mm 0.00 in0.0 mm
06:31 AM 72.7°F22.6°C 62.2°F16.8°C 70% 2.9 mph NW4.7 kmh NW 8.9 mph14.3 kmh 29.90 in1012.5 mb 0.00 in0.0 mm 0.00 in0.0 mm 0.00 in0.0 mm
06:36 AM 72.7°F22.6°C 62.2°F16.8°C 70% 4.0 mph NW6.4 kmh NW 8.9 mph14.3 kmh 29.90 in1012.5 mb 0.00 in0.0 mm 0.00 in0.0 mm 0.00 in0.0 mm
06:41 AM 72.7°F22.6°C 62.2°F16.8°C 70% 4.0 mph NNE6.4 kmh NNE 6.9 mph11.1 kmh 29.90 in1012.5 mb 0.00 in0.0 mm 0.00 in0.0 mm 0.00 in0.0 mm
06:46 AM 72.9°F22.7°C 62.4°F16.9°C 70% 4.0 mph NW6.4 kmh NW 8.9 mph14.3 kmh 29.90 in1012.5 mb 0.00 in0.0 mm 0.00 in0.0 mm 0.00 in0.0 mm
06:51 AM 73.0°F22.8°C 62.6°F17.0°C 70% 4.0 mph W6.4 kmh W 6.9 mph11.1 kmh 29.90 in1012.5 mb 0.00 in0.0 mm 0.00 in0.0 mm 0.00 in0.0 mm
06:56 AM 73.6°F23.1°C 62.8°F17.1°C 69% 4.0 mph NW6.4 kmh NW 8.1 mph13.0 kmh 29.90 in1012.5 mb 0.00 in0.0 mm 0.00 in0.0 mm 0.00 in0.0 mm
07:01 AM 73.8°F23.2°C 63.0°F17.2°C 69% 4.0 mph N6.4 kmh N 6.9 mph11.1 kmh 29.90 in1012.5 mb 0.00 in0.0 mm 0.00 in0.0 mm 0.00 in0.0 mm
07:06 AM 74.1°F23.4°C 63.0°F17.2°C 68% 4.0 mph NW6.4 kmh NW 6.9 mph11.1 kmh 29.90 in1012.5 mb 0.00 in0.0 mm 0.00 in0.0 mm 0.00 in0.0 mm
07:11 AM 74.5°F23.6°C 63.1°F17.3°C 68% 2.9 mph NW4.7 kmh NW 6.9 mph11.1 kmh 29.90 in1012.5 mb 0.00 in0.0 mm 0.00 in0.0 mm 0.00 in0.0 mm
07:16 AM 75.0°F23.9°C 63.3°F17.4°C 67% 2.9 mph NW4.7 kmh NW 6.0 mph9.7 kmh 29.90 in1012.5 mb 0.00 in0.0 mm 0.00 in0.0 mm 0.00 in0.0 mm
07:21 AM 75.7°F24.3°C 63.5°F17.5°C 66% 2.0 mph N3.2 kmh N 4.0 mph6.4 kmh 29.90 in1012.5 mb 0.00 in0.0 mm 0.00 in0.0 mm 0.00 in0.0 mm
07:26 AM 75.9°F24.4°C 63.3°F17.4°C 65% 2.0 mph NW3.2 kmh NW 6.0 mph9.7 kmh 29.90 in1012.5 mb 0.00 in0.0 mm 0.00 in0.0 mm 0.00 in0.0 mm
07:31 AM 76.3°F24.6°C 63.7°F17.6°C 65% 2.0 mph N3.2 kmh N 4.9 mph7.9 kmh 29.90 in1012.5 mb 0.00 in0.0 mm 0.00 in0.0 mm 0.00 in0.0 mm
07:36 AM 76.5°F24.7°C 63.3°F17.4°C 64% 2.9 mph NNW4.7 kmh NNW 11.0 mph17.7 kmh 29.90 in1012.5 mb 0.00 in0.0 mm 0.00 in0.0 mm 0.00 in0.0 mm
07:41 AM 76.8°F24.9°C 63.7°F17.6°C 64% 4.0 mph WNW6.4 kmh WNW 6.0 mph9.7 kmh 29.90 in1012.5 mb 0.00 in0.0 mm 0.00 in0.0 mm 0.00 in0.0 mm
07:46 AM 77.0°F25.0°C 63.5°F17.5°C 63% 2.9 mph WNW4.7 kmh WNW 6.9 mph11.1 kmh 29.90 in1012.5 mb 0.00 in0.0 mm 0.00 in0.0 mm 0.00 in0.0 mm
07:51 AM 77.4°F25.2°C 63.9°F17.7°C 63% 2.9 mph NW4.7 kmh NW 4.9 mph7.9 kmh 29.90 in1012.5 mb 0.00 in0.0 mm 0.00 in0.0 mm 0.00 in0.0 mm
07:56 AM 77.7°F25.4°C 63.7°F17.6°C 62% 2.0 mph WNW3.2 kmh WNW 4.9 mph7.9 kmh 29.90 in1012.5 mb 0.00 in0.0 mm 0.00 in0.0 mm 0.00 in0.0 mm
08:01 AM 78.3°F25.7°C 64.2°F17.9°C 62% 2.0 mph N3.2 kmh N 4.9 mph7.9 kmh 29.90 in1012.5 mb 0.00 in0.0 mm 0.00 in0.0 mm 0.00 in0.0 mm
08:06 AM 78.4°F25.8°C 64.4°F18.0°C 62% 2.0 mph N3.2 kmh N 6.0 mph9.7 kmh 29.90 in1012.5 mb 0.00 in0.0 mm 0.00 in0.0 mm 0.00 in0.0 mm
08:11 AM 78.8°F26.0°C 64.2°F17.9°C 61% 2.9 mph NW4.7 kmh NW 4.9 mph7.9 kmh 29.89 in1012.2 mb 0.00 in0.0 mm 0.00 in0.0 mm 0.00 in0.0 mm
08:16 AM 79.2°F26.2°C 64.6°F18.1°C 61% 2.0 mph 3.2 kmh 4.0 mph6.4 kmh 29.89 in1012.2 mb 0.00 in0.0 mm 0.00 in0.0 mm 0.00 in0.0 mm
08:21 AM 79.5°F26.4°C 64.4°F18.0°C 60% 2.0 mph NNW3.2 kmh NNW 4.0 mph6.4 kmh 29.89 in1012.2 mb 0.00 in0.0 mm 0.00 in0.0 mm 0.00 in0.0 mm
08:26 AM 79.9°F26.6°C 64.8°F18.2°C 60% 2.0 mph N3.2 kmh N 4.0 mph6.4 kmh 29.89 in1012.2 mb 0.00 in0.0 mm 0.00 in0.0 mm 0.00 in0.0 mm
08:31 AM 80.2°F26.8°C 64.6°F18.1°C 59% 2.9 mph WNW4.7 kmh WNW 4.9 mph7.9 kmh 29.89 in1012.2 mb 0.00 in0.0 mm 0.00 in0.0 mm 0.00 in0.0 mm
08:36 AM 80.4°F26.9°C 64.8°F18.2°C 59% 2.9 mph N4.7 kmh N 4.9 mph7.9 kmh 29.89 in1012.2 mb 0.00 in0.0 mm 0.00 in0.0 mm 0.00 in0.0 mm
08:41 AM 80.8°F27.1°C 65.1°F18.4°C 59% 2.9 mph N4.7 kmh N 4.9 mph7.9 kmh 29.90 in1012.5 mb 0.00 in0.0 mm 0.00 in0.0 mm 0.00 in0.0 mm
08:46 AM 81.0°F27.2°C 65.3°F18.5°C 59% 2.9 mph N4.7 kmh N 4.0 mph6.4 kmh 29.90 in1012.5 mb 0.00 in0.0 mm 0.00 in0.0 mm 0.00 in0.0 mm
08:52 AM 81.3°F27.4°C 65.1°F18.4°C 58% 2.0 mph N3.2 kmh N 4.0 mph6.4 kmh 29.90 in1012.5 mb 0.00 in0.0 mm 0.00 in0.0 mm 0.00 in0.0 mm
08:57 AM 81.3°F27.4°C 65.1°F18.4°C 58% 2.9 mph N4.7 kmh N 4.0 mph6.4 kmh 29.90 in1012.5 mb 0.00 in0.0 mm 0.00 in0.0 mm 0.00 in0.0 mm
09:02 AM 81.5°F27.5°C 65.3°F18.5°C 58% 2.0 mph N3.2 kmh N 4.0 mph6.4 kmh 29.90 in1012.5 mb 0.00 in0.0 mm 0.00 in0.0 mm 0.00 in0.0 mm
09:07 AM 81.9°F27.7°C 65.1°F18.4°C 57% 2.0 mph N3.2 kmh N 4.0 mph6.4 kmh 29.90 in1012.5 mb 0.00 in0.0 mm 0.00 in0.0 mm 0.00 in0.0 mm
09:12 AM 82.0°F27.8°C 65.3°F18.5°C 57% 2.9 mph N4.7 kmh N 4.9 mph7.9 kmh 29.90 in1012.5 mb 0.00 in0.0 mm 0.00 in0.0 mm 0.00 in0.0 mm
09:17 AM 82.2°F27.9°C 65.5°F18.6°C 57% 2.0 mph NNE3.2 kmh NNE 2.9 mph4.7 kmh 29.90 in1012.5 mb 0.00 in0.0 mm 0.00 in0.0 mm 0.00 in0.0 mm
09:22 AM 82.6°F28.1°C 65.8°F18.8°C 57% 0.9 mph NNE1.4 kmh NNE 2.9 mph4.7 kmh 29.90 in1012.5 mb 0.00 in0.0 mm 0.00 in0.0 mm 0.00 in0.0 mm
09:27 AM 82.2°F27.9°C 66.0°F18.9°C 58% 2.0 mph ENE3.2 kmh ENE 6.0 mph9.7 kmh 29.90 in1012.5 mb 0.00 in0.0 mm 0.00 in0.0 mm 0.00 in0.0 mm
09:32 AM 82.0°F27.8°C 66.4°F19.1°C 59% 2.9 mph NE4.7 kmh NE 6.0 mph9.7 kmh 29.90 in1012.5 mb 0.00 in0.0 mm 0.00 in0.0 mm 0.00 in0.0 mm
09:37 AM 81.9°F27.7°C 66.6°F19.2°C 60% 2.9 mph ENE4.7 kmh ENE 4.9 mph7.9 kmh 29.90 in1012.5 mb 0.00 in0.0 mm 0.00 in0.0 mm 0.00 in0.0 mm
09:42 AM 81.7°F27.6°C 66.9°F19.4°C 61% 2.9 mph ENE4.7 kmh ENE 4.9 mph7.9 kmh 29.90 in1012.5 mb 0.00 in0.0 mm 0.00 in0.0 mm 0.00 in0.0 mm
09:47 AM 81.3°F27.4°C 66.6°F19.2°C 61% 2.9 mph E4.7 kmh E 4.9 mph7.9 kmh 29.90 in1012.5 mb 0.00 in0.0 mm 0.00 in0.0 mm 0.00 in0.0 mm
09:52 AM 81.5°F27.5°C 67.3°F19.6°C 62% 2.9 mph NE4.7 kmh NE 4.9 mph7.9 kmh 29.90 in1012.5 mb 0.00 in0.0 mm 0.00 in0.0 mm 0.00 in0.0 mm
09:57 AM 81.7°F27.6°C 67.5°F19.7°C 62% 2.9 mph NE4.7 kmh NE 4.9 mph7.9 kmh 29.90 in1012.5 mb 0.00 in0.0 mm 0.00 in0.0 mm 0.00 in0.0 mm
10:02 AM 81.3°F27.4°C 67.5°F19.7°C 63% 2.9 mph E4.7 kmh E 6.0 mph9.7 kmh 29.90 in1012.5 mb 0.00 in0.0 mm 0.00 in0.0 mm 0.00 in0.0 mm
10:07 AM 81.3°F27.4°C 67.5°F19.7°C 63% 2.9 mph E4.7 kmh E 4.9 mph7.9 kmh 29.90 in1012.5 mb 0.00 in0.0 mm 0.00 in0.0 mm 0.00 in0.0 mm
10:12 AM 81.5°F27.5°C 67.6°F19.8°C 63% 4.0 mph E6.4 kmh E 4.9 mph7.9 kmh 29.90 in1012.5 mb 0.00 in0.0 mm 0.00 in0.0 mm 0.00 in0.0 mm
10:17 AM 81.3°F27.4°C 68.0°F20.0°C 64% 4.0 mph E6.4 kmh E 4.9 mph7.9 kmh 29.90 in1012.5 mb 0.00 in0.0 mm 0.00 in0.0 mm 0.00 in0.0 mm
10:22 AM 81.3°F27.4°C 68.0°F20.0°C 64% 4.0 mph E6.4 kmh E 4.9 mph7.9 kmh 29.90 in1012.5 mb 0.00 in0.0 mm 0.00 in0.0 mm 0.00 in0.0 mm
10:27 AM 81.5°F27.5°C 68.5°F20.3°C 65% 4.0 mph NE6.4 kmh NE 6.0 mph9.7 kmh 29.90 in1012.5 mb 0.00 in0.0 mm 0.00 in0.0 mm 0.00 in0.0 mm
10:32 AM 81.7°F27.6°C 68.4°F20.2°C 64% 4.0 mph E6.4 kmh E 6.9 mph11.1 kmh 29.90 in1012.5 mb 0.00 in0.0 mm 0.00 in0.0 mm 0.00 in0.0 mm
10:37 AM 81.3°F27.4°C 68.4°F20.2°C 65% 4.0 mph ENE6.4 kmh ENE 8.1 mph13.0 kmh 29.90 in1012.5 mb 0.00 in0.0 mm 0.00 in0.0 mm 0.00 in0.0 mm
10:42 AM 81.3°F27.4°C 68.9°F20.5°C 66% 4.0 mph ENE6.4 kmh ENE 6.9 mph11.1 kmh 29.90 in1012.5 mb 0.00 in0.0 mm 0.00 in0.0 mm 0.00 in0.0 mm
10:47 AM 81.1°F27.3°C 69.1°F20.6°C 67% 4.9 mph E7.9 kmh E 6.9 mph11.1 kmh 29.90 in1012.5 mb 0.00 in0.0 mm 0.00 in0.0 mm 0.00 in0.0 mm
10:52 AM 81.3°F27.4°C 69.3°F20.7°C 67% 4.0 mph NE6.4 kmh NE 6.0 mph9.7 kmh 29.90 in1012.5 mb 0.00 in0.0 mm 0.00 in0.0 mm 0.00 in0.0 mm
10:57 AM 81.3°F27.4°C 69.3°F20.7°C 67% 4.0 mph ENE6.4 kmh ENE 6.9 mph11.1 kmh 29.90 in1012.5 mb 0.00 in0.0 mm 0.00 in0.0 mm 0.00 in0.0 mm
11:02 AM 81.7°F27.6°C 69.6°F20.9°C 67% 4.0 mph E6.4 kmh E 6.9 mph11.1 kmh 29.90 in1012.5 mb 0.00 in0.0 mm 0.00 in0.0 mm 0.00 in0.0 mm
11:07 AM 81.7°F27.6°C 70.2°F21.2°C 68% 4.0 mph NE6.4 kmh NE 6.0 mph9.7 kmh 29.89 in1012.2 mb 0.00 in0.0 mm 0.00 in0.0 mm 0.00 in0.0 mm
11:12 AM 81.7°F27.6°C 70.2°F21.2°C 68% 4.0 mph E6.4 kmh E 4.9 mph7.9 kmh 29.89 in1012.2 mb 0.00 in0.0 mm 0.00 in0.0 mm 0.00 in0.0 mm
11:17 AM 81.7°F27.6°C 70.2°F21.2°C 68% 4.0 mph E6.4 kmh E 7.0 mph11.3 kmh 29.89 in1012.2 mb 0.00 in0.0 mm 0.00 in0.0 mm 0.00 in0.0 mm
11:22 AM 81.9°F27.7°C 70.7°F21.5°C 69% 4.0 mph E6.4 kmh E 6.0 mph9.7 kmh 29.89 in1012.2 mb 0.00 in0.0 mm 0.00 in0.0 mm 0.00 in0.0 mm
11:27 AM 82.2°F27.9°C 71.1°F21.7°C 69% 2.9 mph ENE4.7 kmh ENE 6.0 mph9.7 kmh 29.89 in1012.2 mb 0.00 in0.0 mm 0.00 in0.0 mm 0.00 in0.0 mm
11:32 AM 81.7°F27.6°C 70.5°F21.4°C 69% 4.0 mph ENE6.4 kmh ENE 7.0 mph11.3 kmh 29.89 in1012.2 mb 0.00 in0.0 mm 0.00 in0.0 mm 0.00 in0.0 mm
11:37 AM 82.0°F27.8°C 70.9°F21.6°C 69% 4.0 mph E6.4 kmh E 8.1 mph13.0 kmh 29.89 in1012.2 mb 0.00 in0.0 mm 0.00 in0.0 mm 0.00 in0.0 mm
11:42 AM 82.4°F28.0°C 71.2°F21.8°C 69% 2.9 mph ENE4.7 kmh ENE 8.1 mph13.0 kmh 29.89 in1012.2 mb 0.00 in0.0 mm 0.00 in0.0 mm 0.00 in0.0 mm
11:47 AM 82.2°F27.9°C 71.1°F21.7°C 69% 2.9 mph ENE4.7 kmh ENE 6.9 mph11.1 kmh 29.89 in1012.2 mb 0.00 in0.0 mm 0.00 in0.0 mm 0.00 in0.0 mm
11:52 AM 82.6°F28.1°C 71.4°F21.9°C 69% 4.0 mph E6.4 kmh E 6.9 mph11.1 kmh 29.89 in1012.2 mb 0.00 in0.0 mm 0.00 in0.0 mm 0.00 in0.0 mm
11:57 AM 82.4°F28.0°C 70.7°F21.5°C 68% 4.0 mph NE6.4 kmh NE 6.0 mph9.7 kmh 29.88 in1011.9 mb 0.00 in0.0 mm 0.00 in0.0 mm 0.00 in0.0 mm
12:02 PM 82.0°F27.8°C 70.3°F21.3°C 68% 4.0 mph E6.4 kmh E 8.1 mph13.0 kmh 29.88 in1011.9 mb 0.00 in0.0 mm 0.00 in0.0 mm 0.00 in0.0 mm
12:07 PM 82.0°F27.8°C 70.9°F21.6°C 69% 4.0 mph E6.4 kmh E 6.0 mph9.7 kmh 29.88 in1011.9 mb 0.00 in0.0 mm 0.00 in0.0 mm 0.00 in0.0 mm
12:12 PM 82.2°F27.9°C 71.1°F21.7°C 69% 4.0 mph E6.4 kmh E 6.9 mph11.1 kmh 29.88 in1011.9 mb 0.00 in0.0 mm 0.00 in0.0 mm 0.00 in0.0 mm
12:17 PM 82.0°F27.8°C 70.9°F21.6°C 69% 4.0 mph ENE6.4 kmh ENE 6.9 mph11.1 kmh 29.88 in1011.9 mb 0.00 in0.0 mm 0.00 in0.0 mm 0.00 in0.0 mm
12:22 PM 82.2°F27.9°C 71.1°F21.7°C 69% 4.0 mph ENE6.4 kmh ENE 6.9 mph11.1 kmh 29.88 in1011.9 mb 0.00 in0.0 mm 0.00 in0.0 mm 0.00 in0.0 mm
12:27 PM 82.6°F28.1°C 71.4°F21.9°C 69% 4.0 mph E6.4 kmh E 6.9 mph11.1 kmh 29.88 in1011.9 mb 0.00 in0.0 mm 0.00 in0.0 mm 0.00 in0.0 mm
12:32 PM 82.8°F28.2°C 72.0°F22.2°C 70% 4.0 mph E6.4 kmh E 6.9 mph11.1 kmh 29.88 in1011.9 mb 0.00 in0.0 mm 0.00 in0.0 mm 0.00 in0.0 mm
12:37 PM 82.6°F28.1°C 72.1°F22.3°C 71% 4.0 mph E6.4 kmh E 8.1 mph13.0 kmh 29.88 in1011.9 mb 0.00 in0.0 mm 0.00 in0.0 mm 0.00 in0.0 mm
12:42 PM 82.6°F28.1°C 72.1°F22.3°C 71% 4.9 mph E7.9 kmh E 8.1 mph13.0 kmh 29.88 in1011.9 mb 0.00 in0.0 mm 0.00 in0.0 mm 0.00 in0.0 mm
12:47 PM 82.2°F27.9°C 72.3°F22.4°C 72% 4.0 mph E6.4 kmh E 6.9 mph11.1 kmh 29.88 in1011.9 mb 0.00 in0.0 mm 0.00 in0.0 mm 0.00 in0.0 mm
12:52 PM 82.6°F28.1°C 72.1°F22.3°C 71% 4.0 mph E6.4 kmh E 6.9 mph11.1 kmh 29.88 in1011.9 mb 0.00 in0.0 mm 0.00 in0.0 mm 0.00 in0.0 mm
12:57 PM 82.8°F28.2°C 72.3°F22.4°C 71% 4.0 mph E6.4 kmh E 6.9 mph11.1 kmh 29.88 in1011.9 mb 0.00 in0.0 mm 0.00 in0.0 mm 0.00 in0.0 mm
01:02 PM 82.6°F28.1°C 72.1°F22.3°C 71% 4.0 mph ESE6.4 kmh ESE 6.9 mph11.1 kmh 29.88 in1011.9 mb 0.00 in0.0 mm 0.00 in0.0 mm 0.00 in0.0 mm
01:07 PM 83.1°F28.4°C 72.7°F22.6°C 71% 2.9 mph E4.7 kmh E 6.0 mph9.7 kmh 29.88 in1011.9 mb 0.00 in0.0 mm 0.00 in0.0 mm 0.00 in0.0 mm
01:12 PM 82.9°F28.3°C 72.5°F22.5°C 71% 4.0 mph E6.4 kmh E 6.9 mph11.1 kmh 29.87 in1011.5 mb 0.00 in0.0 mm 0.00 in0.0 mm 0.00 in0.0 mm
01:17 PM 83.1°F28.4°C 72.7°F22.6°C 71% 4.0 mph E6.4 kmh E 6.9 mph11.1 kmh 29.87 in1011.5 mb 0.00 in0.0 mm 0.00 in0.0 mm 0.00 in0.0 mm
01:22 PM 83.1°F28.4°C 72.0°F22.2°C 69% 4.0 mph E6.4 kmh E 6.9 mph11.1 kmh 29.87 in1011.5 mb 0.00 in0.0 mm 0.00 in0.0 mm 0.00 in0.0 mm
01:27 PM 83.5°F28.6°C 72.7°F22.6°C 70% 4.0 mph E6.4 kmh E 4.9 mph7.9 kmh 29.87 in1011.5 mb 0.00 in0.0 mm 0.00 in0.0 mm 0.00 in0.0 mm
01:32 PM 83.8°F28.8°C 72.5°F22.5°C 69% 2.9 mph E4.7 kmh E 6.9 mph11.1 kmh 29.87 in1011.5 mb 0.00 in0.0 mm 0.00 in0.0 mm 0.00 in0.0 mm
01:37 PM 83.5°F28.6°C 72.7°F22.6°C 70% 4.0 mph E6.4 kmh E 8.1 mph13.0 kmh 29.87 in1011.5 mb 0.00 in0.0 mm 0.00 in0.0 mm 0.00 in0.0 mm
01:42 PM 83.1°F28.4°C 72.0°F22.2°C 69% 4.0 mph E6.4 kmh E 8.1 mph13.0 kmh 29.86 in1011.2 mb 0.00 in0.0 mm 0.00 in0.0 mm 0.00 in0.0 mm
01:47 PM 83.1°F28.4°C 72.0°F22.2°C 69% 4.0 mph E6.4 kmh E 8.1 mph13.0 kmh 29.86 in1011.2 mb 0.00 in0.0 mm 0.00 in0.0 mm 0.00 in0.0 mm
01:52 PM 82.8°F28.2°C 71.6°F22.0°C 69% 4.0 mph E6.4 kmh E 8.1 mph13.0 kmh 29.86 in1011.2 mb 0.00 in0.0 mm 0.00 in0.0 mm 0.00 in0.0 mm
01:57 PM 82.8°F28.2°C 70.7°F21.5°C 67% 4.9 mph NE7.9 kmh NE 6.9 mph11.1 kmh 29.86 in1011.2 mb 0.00 in0.0 mm 0.00 in0.0 mm 0.00 in0.0 mm
02:02 PM 82.8°F28.2°C 71.6°F22.0°C 69% 4.0 mph E6.4 kmh E 8.1 mph13.0 kmh 29.85 in1010.8 mb 0.00 in0.0 mm 0.00 in0.0 mm 0.00 in0.0 mm
02:07 PM 82.8°F28.2°C 71.6°F22.0°C 69% 4.9 mph NE7.9 kmh NE 8.9 mph14.3 kmh 29.85 in1010.8 mb 0.00 in0.0 mm 0.00 in0.0 mm 0.00 in0.0 mm
02:12 PM 82.9°F28.3°C 72.1°F22.3°C 70% 4.9 mph E7.9 kmh E 8.1 mph13.0 kmh 29.85 in1010.8 mb 0.00 in0.0 mm 0.00 in0.0 mm 0.00 in0.0 mm
02:17 PM 82.8°F28.2°C 71.1°F21.7°C 68% 4.0 mph E6.4 kmh E 6.9 mph11.1 kmh 29.85 in1010.8 mb 0.00 in0.0 mm 0.00 in0.0 mm 0.00 in0.0 mm
02:22 PM 83.1°F28.4°C 72.0°F22.2°C 69% 4.0 mph ENE6.4 kmh ENE 6.9 mph11.1 kmh 29.85 in1010.8 mb 0.00 in0.0 mm 0.00 in0.0 mm 0.00 in0.0 mm
02:27 PM 83.3°F28.5°C 71.6°F22.0°C 68% 4.0 mph E6.4 kmh E 6.0 mph9.7 kmh 29.85 in1010.8 mb 0.00 in0.0 mm 0.00 in0.0 mm 0.00 in0.0 mm
02:32 PM 83.5°F28.6°C 71.8°F22.1°C 68% 4.0 mph E6.4 kmh E 6.9 mph11.1 kmh 29.84 in1010.5 mb 0.00 in0.0 mm 0.00 in0.0 mm 0.00 in0.0 mm
02:37 PM 83.1°F28.4°C 71.4°F21.9°C 68% 4.0 mph E6.4 kmh E 6.9 mph11.1 kmh 29.84 in1010.5 mb 0.00 in0.0 mm 0.00 in0.0 mm 0.00 in0.0 mm
02:42 PM 83.5°F28.6°C 70.9°F21.6°C 66% 4.0 mph E6.4 kmh E 6.0 mph9.7 kmh 29.84 in1010.5 mb 0.00 in0.0 mm 0.00 in0.0 mm 0.00 in0.0 mm
02:47 PM 83.5°F28.6°C 70.9°F21.6°C 66% 2.9 mph NE4.7 kmh NE 6.9 mph11.1 kmh 29.84 in1010.5 mb 0.00 in0.0 mm 0.00 in0.0 mm 0.00 in0.0 mm
02:52 PM 83.3°F28.5°C 70.3°F21.3°C 65% 4.0 mph E6.4 kmh E 8.1 mph13.0 kmh 29.83 in1010.2 mb 0.00 in0.0 mm 0.00 in0.0 mm 0.00 in0.0 mm
02:57 PM 83.3°F28.5°C 70.7°F21.5°C 66% 4.0 mph ENE6.4 kmh ENE 6.0 mph9.7 kmh 29.83 in1010.2 mb 0.00 in0.0 mm 0.00 in0.0 mm 0.00 in0.0 mm
03:02 PM 83.3°F28.5°C 70.7°F21.5°C 66% 4.0 mph NE6.4 kmh NE 7.0 mph11.3 kmh 29.83 in1010.2 mb 0.00 in0.0 mm 0.00 in0.0 mm 0.00 in0.0 mm
03:07 PM 83.5°F28.6°C 70.9°F21.6°C 66% 4.0 mph E6.4 kmh E 6.9 mph11.1 kmh 29.83 in1010.2 mb 0.00 in0.0 mm 0.00 in0.0 mm 0.00 in0.0 mm
03:12 PM 83.7°F28.7°C 70.7°F21.5°C 65% 4.0 mph ESE6.4 kmh ESE 6.0 mph9.7 kmh 29.82 in1009.8 mb 0.00 in0.0 mm 0.00 in0.0 mm 0.00 in0.0 mm
03:17 PM 83.7°F28.7°C 70.7°F21.5°C 65% 4.0 mph ENE6.4 kmh ENE 6.0 mph9.7 kmh 29.82 in1009.8 mb 0.00 in0.0 mm 0.00 in0.0 mm 0.00 in0.0 mm
03:22 PM 83.7°F28.7°C 71.1°F21.7°C 66% 2.9 mph E4.7 kmh E 6.9 mph11.1 kmh 29.82 in1009.8 mb 0.00 in0.0 mm 0.00 in0.0 mm 0.00 in0.0 mm
03:27 PM 83.7°F28.7°C 70.7°F21.5°C 65% 2.9 mph E4.7 kmh E 6.0 mph9.7 kmh 29.82 in1009.8 mb 0.00 in0.0 mm 0.00 in0.0 mm 0.00 in0.0 mm
03:32 PM 83.5°F28.6°C 70.0°F21.1°C 64% 2.9 mph E4.7 kmh E 7.0 mph11.3 kmh 29.82 in1009.8 mb 0.00 in0.0 mm 0.00 in0.0 mm 0.00 in0.0 mm
03:37 PM 83.8°F28.8°C 70.9°F21.6°C 65% 4.0 mph ESE6.4 kmh ESE 6.9 mph11.1 kmh 29.82 in1009.8 mb 0.00 in0.0 mm 0.00 in0.0 mm 0.00 in0.0 mm
03:42 PM 83.8°F28.8°C 70.9°F21.6°C 65% 4.0 mph E6.4 kmh E 6.9 mph11.1 kmh 29.81 in1009.5 mb 0.00 in0.0 mm 0.00 in0.0 mm 0.00 in0.0 mm
03:47 PM 83.8°F28.8°C 70.9°F21.6°C 65% 4.0 mph E6.4 kmh E 6.9 mph11.1 kmh 29.81 in1009.5 mb 0.00 in0.0 mm 0.00 in0.0 mm 0.00 in0.0 mm
03:52 PM 83.8°F28.8°C 70.9°F21.6°C 65% 4.9 mph E7.9 kmh E 6.9 mph11.1 kmh 29.82 in1009.8 mb 0.00 in0.0 mm 0.00 in0.0 mm 0.00 in0.0 mm
03:57 PM 83.8°F28.8°C 70.9°F21.6°C 65% 4.0 mph E6.4 kmh E 6.0 mph9.7 kmh 29.82 in1009.8 mb 0.00 in0.0 mm 0.00 in0.0 mm 0.00 in0.0 mm
04:02 PM 83.8°F28.8°C 71.2°F21.8°C 66% 4.0 mph E6.4 kmh E 7.0 mph11.3 kmh 29.82 in1009.8 mb 0.00 in0.0 mm 0.00 in0.0 mm 0.00 in0.0 mm
04:07 PM 83.8°F28.8°C 71.2°F21.8°C 66% 4.0 mph SE6.4 kmh SE 7.0 mph11.3 kmh 29.82 in1009.8 mb 0.00 in0.0 mm 0.00 in0.0 mm 0.00 in0.0 mm
04:12 PM 83.7°F28.7°C 71.1°F21.7°C 66% 4.0 mph ESE6.4 kmh ESE 6.9 mph11.1 kmh 29.82 in1009.8 mb 0.00 in0.0 mm 0.00 in0.0 mm 0.00 in0.0 mm
04:17 PM 83.7°F28.7°C 71.1°F21.7°C 66% 4.0 mph E6.4 kmh E 6.9 mph11.1 kmh 29.82 in1009.8 mb 0.00 in0.0 mm 0.00 in0.0 mm 0.00 in0.0 mm
04:22 PM 83.7°F28.7°C 71.6°F22.0°C 67% 4.0 mph ESE6.4 kmh ESE 6.9 mph11.1 kmh 29.82 in1009.8 mb 0.00 in0.0 mm 0.00 in0.0 mm 0.00 in0.0 mm
04:27 PM 83.7°F28.7°C 71.6°F22.0°C 67% 2.9 mph ESE4.7 kmh ESE 4.9 mph7.9 kmh 29.82 in1009.8 mb 0.00 in0.0 mm 0.00 in0.0 mm 0.00 in0.0 mm
04:32 PM 83.7°F28.7°C 72.0°F22.2°C 68% 2.0 mph ESE3.2 kmh ESE 6.0 mph9.7 kmh 29.83 in1010.2 mb 0.00 in0.0 mm 0.00 in0.0 mm 0.00 in0.0 mm
04:37 PM 84.0°F28.9°C 72.0°F22.2°C 67% 2.0 mph SE3.2 kmh SE 4.9 mph7.9 kmh 29.83 in1010.2 mb 0.00 in0.0 mm 0.00 in0.0 mm 0.00 in0.0 mm
04:42 PM 83.8°F28.8°C 72.1°F22.3°C 68% 2.9 mph SE4.7 kmh SE 7.0 mph11.3 kmh 29.83 in1010.2 mb 0.00 in0.0 mm 0.00 in0.0 mm 0.00 in0.0 mm
04:47 PM 83.7°F28.7°C 72.0°F22.2°C 68% 2.9 mph SE4.7 kmh SE 4.9 mph7.9 kmh 29.83 in1010.2 mb 0.00 in0.0 mm 0.00 in0.0 mm 0.00 in0.0 mm
04:52 PM 84.2°F29.0°C 71.6°F22.0°C 66% 2.9 mph S4.7 kmh S 6.0 mph9.7 kmh 29.83 in1010.2 mb 0.00 in0.0 mm 0.00 in0.0 mm 0.00 in0.0 mm
04:57 PM 84.0°F28.9°C 72.3°F22.4°C 68% 2.9 mph SE4.7 kmh SE 6.0 mph9.7 kmh 29.83 in1010.2 mb 0.00 in0.0 mm 0.00 in0.0 mm 0.00 in0.0 mm
05:02 PM 83.8°F28.8°C 71.8°F22.1°C 67% 2.0 mph SE3.2 kmh SE 4.9 mph7.9 kmh 29.83 in1010.2 mb 0.00 in0.0 mm 0.00 in0.0 mm 0.00 in0.0 mm
05:07 PM 83.8°F28.8°C 72.1°F22.3°C 68% 2.0 mph SE3.2 kmh SE 6.0 mph9.7 kmh 29.82 in1009.8 mb 0.00 in0.0 mm 0.00 in0.0 mm 0.00 in0.0 mm
05:12 PM 83.8°F28.8°C 72.1°F22.3°C 68% 2.9 mph SE4.7 kmh SE 4.9 mph7.9 kmh 29.82 in1009.8 mb 0.00 in0.0 mm 0.00 in0.0 mm 0.00 in0.0 mm
05:17 PM 84.0°F28.9°C 72.3°F22.4°C 68% 2.0 mph SE3.2 kmh SE 4.0 mph6.4 kmh 29.82 in1009.8 mb 0.00 in0.0 mm 0.00 in0.0 mm 0.00 in0.0 mm
05:22 PM 84.0°F28.9°C 72.3°F22.4°C 68% 0.9 mph ESE1.4 kmh ESE 6.0 mph9.7 kmh 29.82 in1009.8 mb 0.00 in0.0 mm 0.00 in0.0 mm 0.00 in0.0 mm
05:27 PM 83.8°F28.8°C 72.1°F22.3°C 68% 2.0 mph SE3.2 kmh SE 6.0 mph9.7 kmh 29.83 in1010.2 mb 0.00 in0.0 mm 0.00 in0.0 mm 0.00 in0.0 mm
05:32 PM 83.7°F28.7°C 72.0°F22.2°C 68% 2.0 mph ESE3.2 kmh ESE 4.9 mph7.9 kmh 29.83 in1010.2 mb 0.00 in0.0 mm 0.00 in0.0 mm 0.00 in0.0 mm
05:37 PM 83.7°F28.7°C 72.0°F22.2°C 68% 2.0 mph SSE3.2 kmh SSE 6.0 mph9.7 kmh 29.83 in1010.2 mb 0.00 in0.0 mm 0.00 in0.0 mm 0.00 in0.0 mm
05:42 PM 83.8°F28.8°C 72.1°F22.3°C 68% 2.0 mph SE3.2 kmh SE 4.0 mph6.4 kmh 29.83 in1010.2 mb 0.00 in0.0 mm 0.00 in0.0 mm 0.00 in0.0 mm
05:47 PM 83.8°F28.8°C 72.1°F22.3°C 68% 2.0 mph SSE3.2 kmh SSE 5.0 mph8.0 kmh 29.83 in1010.2 mb 0.00 in0.0 mm 0.00 in0.0 mm 0.00 in0.0 mm
05:52 PM 83.8°F28.8°C 72.1°F22.3°C 68% 0.9 mph SE1.4 kmh SE 6.0 mph9.7 kmh 29.83 in1010.2 mb 0.00 in0.0 mm 0.00 in0.0 mm 0.00 in0.0 mm
05:57 PM 83.7°F28.7°C 72.3°F22.4°C 69% 0.9 mph SE1.4 kmh SE 4.9 mph7.9 kmh 29.83 in1010.2 mb 0.00 in0.0 mm 0.00 in0.0 mm 0.00 in0.0 mm
06:02 PM 83.3°F28.5°C 72.1°F22.3°C 69% 2.0 mph SE3.2 kmh SE 6.0 mph9.7 kmh 29.83 in1010.2 mb 0.00 in0.0 mm 0.00 in0.0 mm 0.00 in0.0 mm
06:07 PM 83.1°F28.4°C 72.3°F22.4°C 70% 2.0 mph SE3.2 kmh SE 7.0 mph11.3 kmh 29.83 in1010.2 mb 0.00 in0.0 mm 0.00 in0.0 mm 0.00 in0.0 mm
06:12 PM 83.1°F28.4°C 72.3°F22.4°C 70% 2.0 mph SE3.2 kmh SE 2.9 mph4.7 kmh 29.83 in1010.2 mb 0.00 in0.0 mm 0.00 in0.0 mm 0.00 in0.0 mm
06:17 PM 82.9°F28.3°C 72.5°F22.5°C 71% 0.9 mph SE1.4 kmh SE 4.0 mph6.4 kmh 29.83 in1010.2 mb 0.00 in0.0 mm 0.00 in0.0 mm 0.00 in0.0 mm
06:22 PM 82.8°F28.2°C 72.3°F22.4°C 71% 0.9 mph S1.4 kmh S 4.0 mph6.4 kmh 29.83 in1010.2 mb 0.00 in0.0 mm 0.00 in0.0 mm 0.00 in0.0 mm
06:27 PM 82.8°F28.2°C 72.3°F22.4°C 71% 2.0 mph S3.2 kmh S 5.0 mph8.0 kmh 29.83 in1010.2 mb 0.00 in0.0 mm 0.00 in0.0 mm 0.00 in0.0 mm
06:32 PM 82.8°F28.2°C 72.3°F22.4°C 71% 2.0 mph S3.2 kmh S 6.0 mph9.7 kmh 29.84 in1010.5 mb 0.00 in0.0 mm 0.00 in0.0 mm 0.00 in0.0 mm
06:37 PM 82.6°F28.1°C 72.1°F22.3°C 71% 2.9 mph SSE4.7 kmh SSE 6.0 mph9.7 kmh 29.84 in1010.5 mb 0.00 in0.0 mm 0.00 in0.0 mm 0.00 in0.0 mm
06:42 PM 82.2°F27.9°C 72.0°F22.2°C 71% 2.9 mph SSE4.7 kmh SSE 7.0 mph11.3 kmh 29.84 in1010.5 mb 0.00 in0.0 mm 0.00 in0.0 mm 0.00 in0.0 mm
06:47 PM 82.2°F27.9°C 72.3°F22.4°C 72% 2.9 mph SSE4.7 kmh SSE 6.0 mph9.7 kmh 29.84 in1010.5 mb 0.00 in0.0 mm 0.00 in0.0 mm 0.00 in0.0 mm
06:52 PM 82.0°F27.8°C 72.1°F22.3°C 72% 2.0 mph S3.2 kmh S 4.9 mph7.9 kmh 29.84 in1010.5 mb 0.00 in0.0 mm 0.00 in0.0 mm 0.00 in0.0 mm
06:57 PM 81.9°F27.7°C 72.0°F22.2°C 72% 2.0 mph S3.2 kmh S 4.0 mph6.4 kmh 29.84 in1010.5 mb 0.00 in0.0 mm 0.00 in0.0 mm 0.00 in0.0 mm
07:02 PM 81.7°F27.6°C 71.4°F21.9°C 71% 0.9 mph S1.4 kmh S 4.0 mph6.4 kmh 29.84 in1010.5 mb 0.00 in0.0 mm 0.00 in0.0 mm 0.00 in0.0 mm
07:07 PM 81.7°F27.6°C 71.8°F22.1°C 72% 0.9 mph S1.4 kmh S 2.9 mph4.7 kmh 29.84 in1010.5 mb 0.00 in0.0 mm 0.00 in0.0 mm 0.00 in0.0 mm
07:12 PM 81.5°F27.5°C 71.6°F22.0°C 72% 0.9 mph SSW1.4 kmh SSW 4.0 mph6.4 kmh 29.84 in1010.5 mb 0.00 in0.0 mm 0.00 in0.0 mm 0.00 in0.0 mm
07:17 PM 81.1°F27.3°C 71.2°F21.8°C 72% 2.0 mph SSW3.2 kmh SSW 4.0 mph6.4 kmh 29.84 in1010.5 mb 0.00 in0.0 mm 0.00 in0.0 mm 0.00 in0.0 mm
07:22 PM 81.0°F27.2°C 71.1°F21.7°C 72% 0.9 mph SSW1.4 kmh SSW 2.0 mph3.2 kmh 29.84 in1010.5 mb 0.00 in0.0 mm 0.00 in0.0 mm 0.00 in0.0 mm
07:27 PM 81.0°F27.2°C 71.1°F21.7°C 72% Calm Calm 2.0 mph3.2 kmh 29.84 in1010.5 mb 0.00 in0.0 mm 0.00 in0.0 mm 0.00 in0.0 mm
07:32 PM 80.8°F27.1°C 70.9°F21.6°C 72% Calm Calm 3.0 mph4.8 kmh 29.84 in1010.5 mb 0.00 in0.0 mm 0.00 in0.0 mm 0.00 in0.0 mm
07:42 PM 80.1°F26.7°C 70.7°F21.5°C 73% 2.0 mph SSW3.2 kmh SSW 2.9 mph4.7 kmh 29.84 in1010.5 mb 0.00 in0.0 mm 0.00 in0.0 mm 0.00 in0.0 mm
07:47 PM 79.9°F26.6°C 70.5°F21.4°C 73% 2.0 mph SSW3.2 kmh SSW 2.9 mph4.7 kmh 29.85 in1010.8 mb 0.00 in0.0 mm 0.00 in0.0 mm 0.00 in0.0 mm
07:52 PM 79.7°F26.5°C 70.3°F21.3°C 73% 0.9 mph SSW1.4 kmh SSW 4.0 mph6.4 kmh 29.85 in1010.8 mb 0.00 in0.0 mm 0.00 in0.0 mm 0.00 in0.0 mm
07:57 PM 79.5°F26.4°C 70.2°F21.2°C 73% 0.9 mph SSW1.4 kmh SSW 4.0 mph6.4 kmh 29.85 in1010.8 mb 0.00 in0.0 mm 0.00 in0.0 mm 0.00 in0.0 mm
08:02 PM 79.5°F26.4°C 70.5°F21.4°C 74% 0.9 mph SSW1.4 kmh SSW 2.0 mph3.2 kmh 29.84 in1010.5 mb 0.00 in0.0 mm 0.00 in0.0 mm 0.00 in0.0 mm
08:07 PM 79.3°F26.3°C 70.3°F21.3°C 74% 0.9 mph SSW1.4 kmh SSW 2.0 mph3.2 kmh 29.84 in1010.5 mb 0.00 in0.0 mm 0.00 in0.0 mm 0.00 in0.0 mm
08:12 PM 79.3°F26.3°C 70.3°F21.3°C 74% 0.9 mph SSW1.4 kmh SSW 0.9 mph1.4 kmh 29.85 in1010.8 mb 0.00 in0.0 mm 0.00 in0.0 mm 0.00 in0.0 mm
08:17 PM 79.2°F26.2°C 70.2°F21.2°C 74% Calm Calm 0.9 mph1.4 kmh 29.84 in1010.5 mb 0.00 in0.0 mm 0.00 in0.0 mm 0.00 in0.0 mm
08:22 PM 79.2°F26.2°C 70.2°F21.2°C 74% Calm Calm 2.9 mph4.7 kmh 29.85 in1010.8 mb 0.00 in0.0 mm 0.00 in0.0 mm 0.00 in0.0 mm
08:27 PM 79.2°F26.2°C 70.2°F21.2°C 74% 0.9 mph SSW1.4 kmh SSW 2.9 mph4.7 kmh 29.84 in1010.5 mb 0.00 in0.0 mm 0.00 in0.0 mm 0.00 in0.0 mm
08:32 PM 79.0°F26.1°C 70.0°F21.1°C 74% 2.0 mph SSW3.2 kmh SSW 2.9 mph4.7 kmh 29.85 in1010.8 mb 0.00 in0.0 mm 0.00 in0.0 mm 0.00 in0.0 mm
08:37 PM 78.8°F26.0°C 70.2°F21.2°C 75% 2.0 mph SSW3.2 kmh SSW 2.9 mph4.7 kmh 29.85 in1010.8 mb 0.00 in0.0 mm 0.00 in0.0 mm 0.00 in0.0 mm
08:42 PM 78.8°F26.0°C 70.2°F21.2°C 75% 2.0 mph SSW3.2 kmh SSW 2.9 mph4.7 kmh 29.84 in1010.5 mb 0.00 in0.0 mm 0.00 in0.0 mm 0.00 in0.0 mm
08:47 PM 78.6°F25.9°C 70.0°F21.1°C 75% 0.9 mph SSW1.4 kmh SSW 4.0 mph6.4 kmh 29.85 in1010.8 mb 0.00 in0.0 mm 0.00 in0.0 mm 0.00 in0.0 mm
08:52 PM 78.3°F25.7°C 69.6°F20.9°C 75% 0.9 mph SSW1.4 kmh SSW 2.9 mph4.7 kmh 29.85 in1010.8 mb 0.00 in0.0 mm 0.00 in0.0 mm 0.00 in0.0 mm
08:57 PM 78.3°F25.7°C 69.6°F20.9°C 75% 0.9 mph SSW1.4 kmh SSW 2.9 mph4.7 kmh 29.85 in1010.8 mb 0.00 in0.0 mm 0.00 in0.0 mm 0.00 in0.0 mm
09:02 PM 78.3°F25.7°C 69.6°F20.9°C 75% 0.9 mph SSW1.4 kmh SSW 2.9 mph4.7 kmh 29.85 in1010.8 mb 0.00 in0.0 mm 0.00 in0.0 mm 0.00 in0.0 mm
09:07 PM 78.4°F25.8°C 69.8°F21.0°C 75% 0.9 mph SSW1.4 kmh SSW 2.0 mph3.2 kmh 29.85 in1010.8 mb 0.00 in0.0 mm 0.00 in0.0 mm 0.00 in0.0 mm
09:12 PM 78.4°F25.8°C 69.8°F21.0°C 75% Calm Calm 2.0 mph3.2 kmh 29.85 in1010.8 mb 0.00 in0.0 mm 0.00 in0.0 mm 0.00 in0.0 mm
09:17 PM 78.4°F25.8°C 69.8°F21.0°C 75% Calm Calm 0.9 mph1.4 kmh 29.85 in1010.8 mb 0.00 in0.0 mm 0.00 in0.0 mm 0.00 in0.0 mm
09:22 PM 78.6°F25.9°C 70.3°F21.3°C 76% 0.9 mph SSW1.4 kmh SSW 2.9 mph4.7 kmh 29.85 in1010.8 mb 0.00 in0.0 mm 0.00 in0.0 mm 0.00 in0.0 mm
09:27 PM 78.6°F25.9°C 70.3°F21.3°C 76% 0.9 mph SSW1.4 kmh SSW 2.0 mph3.2 kmh 29.85 in1010.8 mb 0.00 in0.0 mm 0.00 in0.0 mm 0.00 in0.0 mm
09:32 PM 78.6°F25.9°C 70.3°F21.3°C 76% 0.9 mph SSW1.4 kmh SSW 0.9 mph1.4 kmh 29.85 in1010.8 mb 0.00 in0.0 mm 0.00 in0.0 mm 0.00 in0.0 mm
09:37 PM 78.4°F25.8°C 69.8°F21.0°C 75% Calm Calm 2.0 mph3.2 kmh 29.85 in1010.8 mb 0.00 in0.0 mm 0.00 in0.0 mm 0.00 in0.0 mm
09:42 PM 78.1°F25.6°C 69.4°F20.8°C 75% 0.9 mph SSW1.4 kmh SSW 2.0 mph3.2 kmh 29.85 in1010.8 mb 0.00 in0.0 mm 0.00 in0.0 mm 0.00 in0.0 mm
09:47 PM 78.1°F25.6°C 70.0°F21.1°C 76% 0.9 mph SSW1.4 kmh SSW 0.9 mph1.4 kmh 29.85 in1010.8 mb 0.00 in0.0 mm 0.00 in0.0 mm 0.00 in0.0 mm
09:52 PM 77.9°F25.5°C 69.8°F21.0°C 76% Calm Calm 2.0 mph3.2 kmh 29.85 in1010.8 mb 0.00 in0.0 mm 0.00 in0.0 mm 0.00 in0.0 mm
09:57 PM 77.7°F25.4°C 69.6°F20.9°C 76% 2.0 mph SW3.2 kmh SW 4.0 mph6.4 kmh 29.85 in1010.8 mb 0.00 in0.0 mm 0.00 in0.0 mm 0.00 in0.0 mm
10:02 PM 77.5°F25.3°C 69.4°F20.8°C 76% 2.0 mph SW3.2 kmh SW 4.0 mph6.4 kmh 29.85 in1010.8 mb 0.00 in0.0 mm 0.00 in0.0 mm 0.00 in0.0 mm
10:07 PM 77.4°F25.2°C 68.9°F20.5°C 75% 2.0 mph SW3.2 kmh SW 6.0 mph9.7 kmh 29.85 in1010.8 mb 0.00 in0.0 mm 0.00 in0.0 mm 0.00 in0.0 mm
10:12 PM 77.4°F25.2°C 68.4°F20.2°C 74% 2.9 mph WSW4.7 kmh WSW 4.9 mph7.9 kmh 29.85 in1010.8 mb 0.00 in0.0 mm 0.00 in0.0 mm 0.00 in0.0 mm
10:17 PM 77.5°F25.3°C 67.8°F19.9°C 72% 2.9 mph W4.7 kmh W 6.9 mph11.1 kmh 29.85 in1010.8 mb 0.00 in0.0 mm 0.00 in0.0 mm 0.00 in0.0 mm
10:22 PM 77.5°F25.3°C 67.8°F19.9°C 72% 2.9 mph W4.7 kmh W 6.0 mph9.7 kmh 29.85 in1010.8 mb 0.00 in0.0 mm 0.00 in0.0 mm 0.00 in0.0 mm
10:27 PM 77.7°F25.4°C 67.6°F19.8°C 71% 2.0 mph W3.2 kmh W 4.0 mph6.4 kmh 29.85 in1010.8 mb 0.00 in0.0 mm 0.00 in0.0 mm 0.00 in0.0 mm
10:32 PM 77.7°F25.4°C 67.6°F19.8°C 71% 2.0 mph W3.2 kmh W 4.0 mph6.4 kmh 29.85 in1010.8 mb 0.00 in0.0 mm 0.00 in0.0 mm 0.00 in0.0 mm
10:37 PM 77.7°F25.4°C 67.6°F19.8°C 71% 0.9 mph W1.4 kmh W 2.9 mph4.7 kmh 29.85 in1010.8 mb 0.00 in0.0 mm 0.00 in0.0 mm 0.00 in0.0 mm
10:42 PM 77.5°F25.3°C 67.5°F19.7°C 71% 0.9 mph W1.4 kmh W 4.0 mph6.4 kmh 29.85 in1010.8 mb 0.00 in0.0 mm 0.00 in0.0 mm 0.00 in0.0 mm
10:47 PM 76.6°F24.8°C 66.6°F19.2°C 71% 2.0 mph WNW3.2 kmh WNW 6.0 mph9.7 kmh 29.85 in1010.8 mb 0.00 in0.0 mm 0.00 in0.0 mm 0.00 in0.0 mm
10:52 PM 76.1°F24.5°C 66.4°F19.1°C 72% 2.0 mph WNW3.2 kmh WNW 4.0 mph6.4 kmh 29.85 in1010.8 mb 0.00 in0.0 mm 0.00 in0.0 mm 0.00 in0.0 mm
10:57 PM 75.7°F24.3°C 66.4°F19.1°C 73% 2.0 mph WNW3.2 kmh WNW 4.9 mph7.9 kmh 29.84 in1010.5 mb 0.00 in0.0 mm 0.00 in0.0 mm 0.00 in0.0 mm
11:03 PM 75.7°F24.3°C 66.4°F19.1°C 73% 2.0 mph WNW3.2 kmh WNW 4.9 mph7.9 kmh 29.84 in1010.5 mb 0.00 in0.0 mm 0.00 in0.0 mm 0.00 in0.0 mm
11:08 PM 75.9°F24.4°C 66.2°F19.0°C 72% 2.0 mph WNW3.2 kmh WNW 2.9 mph4.7 kmh 29.84 in1010.5 mb 0.00 in0.0 mm 0.00 in0.0 mm 0.00 in0.0 mm
11:13 PM 76.1°F24.5°C 66.4°F19.1°C 72% 2.0 mph WNW3.2 kmh WNW 5.0 mph8.0 kmh 29.84 in1010.5 mb 0.00 in0.0 mm 0.00 in0.0 mm 0.00 in0.0 mm
11:18 PM 75.9°F24.4°C 65.8°F18.8°C 71% 2.0 mph WNW3.2 kmh WNW 4.0 mph6.4 kmh 29.84 in1010.5 mb 0.00 in0.0 mm 0.00 in0.0 mm 0.00 in0.0 mm
11:23 PM 75.6°F24.2°C 65.5°F18.6°C 71% 0.9 mph WNW1.4 kmh WNW 4.0 mph6.4 kmh 29.84 in1010.5 mb 0.00 in0.0 mm 0.00 in0.0 mm 0.00 in0.0 mm
11:28 PM 75.4°F24.1°C 65.3°F18.5°C 71% 0.9 mph WNW1.4 kmh WNW 2.9 mph4.7 kmh 29.84 in1010.5 mb 0.00 in0.0 mm 0.00 in0.0 mm 0.00 in0.0 mm
11:33 PM 75.0°F23.9°C 64.9°F18.3°C 71% 0.9 mph WNW1.4 kmh WNW 4.0 mph6.4 kmh 29.84 in1010.5 mb 0.00 in0.0 mm 0.00 in0.0 mm 0.00 in0.0 mm
11:38 PM 74.8°F23.8°C 64.4°F18.0°C 70% 0.9 mph WNW1.4 kmh WNW 2.9 mph4.7 kmh 29.84 in1010.5 mb 0.00 in0.0 mm 0.00 in0.0 mm 0.00 in0.0 mm
11:43 PM 75.4°F24.1°C 63.7°F17.6°C 67% 0.9 mph WNW1.4 kmh WNW 2.9 mph4.7 kmh 29.84 in1010.5 mb 0.00 in0.0 mm 0.00 in0.0 mm 0.00 in0.0 mm
11:48 PM 75.7°F24.3°C 63.5°F17.5°C 66% 2.0 mph WNW3.2 kmh WNW 5.0 mph8.0 kmh 29.84 in1010.5 mb 0.00 in0.0 mm 0.00 in0.0 mm 0.00 in0.0 mm
11:53 PM 75.9°F24.4°C 63.3°F17.4°C 65% 2.0 mph WNW3.2 kmh WNW 4.9 mph7.9 kmh 29.84 in1010.5 mb 0.00 in0.0 mm 0.00 in0.0 mm 0.00 in0.0 mm
11:58 PM 75.9°F24.4°C 63.3°F17.4°C 65% 2.0 mph W3.2 kmh W 8.9 mph14.3 kmh 29.84 in1010.5 mb 0.00 in0.0 mm 0.00 in0.0 mm 0.00 in0.0 mm